createdAt,value
2022-12-22T00:01:46.576Z,96543.88
2022-12-22T00:06:02.414Z,96557.22
2022-12-22T00:10:14.917Z,96532.16
2022-12-22T00:14:27.965Z,96533.53
2022-12-22T00:18:43.795Z,96533.81
2022-12-22T00:22:56.311Z,96501.78
2022-12-22T00:27:08.918Z,96527.53
2022-12-22T00:31:21.556Z,96505.09
2022-12-22T00:35:40.768Z,96506.34
2022-12-22T00:39:54.596Z,96510.00
2022-12-22T00:44:07.189Z,96500.09
2022-12-22T00:48:23.620Z,96491.97
2022-12-22T00:52:39.423Z,96456.59
2022-12-22T00:56:52.073Z,96490.25
2022-12-22T01:01:04.621Z,96487.44
2022-12-22T01:05:17.283Z,96494.25
2022-12-22T01:09:33.309Z,96468.25
2022-12-22T01:13:46.626Z,96466.25
2022-12-22T01:17:59.195Z,96413.78
2022-12-22T01:22:12.951Z,96467.44
2022-12-22T01:26:29.287Z,96431.38
2022-12-22T01:30:41.928Z,96451.63
2022-12-22T01:34:55.576Z,96463.09
2022-12-22T01:39:08.302Z,96463.44
2022-12-22T01:43:36.384Z,96462.53
2022-12-22T01:47:50.666Z,96429.72
2022-12-22T01:52:03.324Z,96431.50
2022-12-22T01:56:17.047Z,96400.00
2022-12-22T02:00:32.737Z,96417.19
2022-12-22T02:04:55.817Z,96427.97
2022-12-22T02:09:35.301Z,96430.22
2022-12-22T02:14:02.704Z,96425.97
2022-12-22T02:18:27.691Z,96411.81
2022-12-22T02:22:55.086Z,96380.78
2022-12-22T02:27:14.224Z,96406.03
2022-12-22T02:31:26.786Z,96401.31
2022-12-22T02:35:40.771Z,96418.16
2022-12-22T02:40:05.988Z,96398.59
2022-12-22T02:44:37.555Z,96399.59
2022-12-22T02:49:00.706Z,96376.13
2022-12-22T02:53:16.743Z,96364.78
2022-12-22T02:57:32.472Z,96396.84
2022-12-22T03:01:48.131Z,96389.47
2022-12-22T03:06:00.743Z,96383.44
2022-12-22T03:10:13.318Z,96340.22
2022-12-22T03:14:25.858Z,96330.28
2022-12-22T03:18:40.921Z,96363.56
2022-12-22T03:22:53.676Z,96359.66
2022-12-22T03:26:53.673Z,96345.84
2022-12-22T03:30:59.382Z,96331.16
2022-12-22T03:35:02.124Z,96328.22
2022-12-22T03:39:05.079Z,96328.72
2022-12-22T03:43:17.683Z,96328.88
2022-12-22T03:47:17.757Z,96327.09
2022-12-22T03:51:20.719Z,96332.91
2022-12-22T03:55:20.814Z,96318.22
2022-12-22T03:59:22.077Z,96309.28
2022-12-22T04:03:22.276Z,96309.75
2022-12-22T04:07:24.975Z,96306.06
2022-12-22T04:11:49.309Z,96278.31
2022-12-22T04:15:49.363Z,96296.84
2022-12-22T04:19:49.372Z,96301.69
2022-12-22T04:23:53.288Z,96277.78
2022-12-22T04:27:53.300Z,96288.78
2022-12-22T04:31:53.433Z,96291.41
2022-12-22T04:35:53.539Z,96288.78
2022-12-22T04:39:56.189Z,96276.97
2022-12-22T04:43:56.242Z,96280.44
2022-12-22T04:47:56.181Z,96277.22
2022-12-22T04:51:56.727Z,96256.97
2022-12-22T04:56:03.315Z,96227.19
2022-12-22T05:00:03.392Z,96248.00
2022-12-22T05:04:03.505Z,96240.69
2022-12-22T05:08:03.677Z,96203.38
2022-12-22T05:12:27.579Z,96225.38
2022-12-22T05:16:27.652Z,96234.09
2022-12-22T05:20:29.381Z,96209.34
2022-12-22T05:24:29.691Z,96211.38
2022-12-22T05:28:32.505Z,96183.25
2022-12-22T05:32:35.716Z,96219.16
2022-12-22T05:36:35.785Z,96217.03
2022-12-22T05:40:35.834Z,96213.81
2022-12-22T05:44:38.576Z,96160.56
2022-12-22T05:48:40.530Z,96208.22
2022-12-22T05:52:41.170Z,96211.00
2022-12-22T05:56:41.413Z,96208.19
2022-12-22T06:00:44.106Z,96203.38
2022-12-22T06:04:44.103Z,96210.31
2022-12-22T06:08:44.112Z,96205.06
2022-12-22T06:12:44.968Z,96217.38
2022-12-22T06:16:47.633Z,96216.53
2022-12-22T06:20:49.144Z,96211.50
2022-12-22T06:24:49.588Z,96216.31
2022-12-22T06:28:50.545Z,96213.50
2022-12-22T06:32:53.286Z,96205.41
2022-12-22T06:36:53.299Z,96212.03
2022-12-22T06:40:53.732Z,96205.22
2022-12-22T06:44:55.006Z,96206.34
2022-12-22T06:48:57.673Z,96207.34
2022-12-22T06:52:57.790Z,96203.19
2022-12-22T06:56:57.857Z,96180.06
2022-12-22T07:00:59.381Z,96203.81
2022-12-22T07:05:02.128Z,96193.88
2022-12-22T07:09:02.235Z,96205.06
2022-12-22T07:13:19.326Z,96181.03
2022-12-22T07:17:19.731Z,96198.84
2022-12-22T07:21:22.355Z,96200.75
2022-12-22T07:25:22.341Z,96192.03
2022-12-22T07:29:22.493Z,96188.09
2022-12-22T07:33:22.788Z,96191.38
2022-12-22T07:37:25.390Z,96098.53
2022-12-22T07:41:37.961Z,96176.50
2022-12-22T07:45:40.421Z,96180.16
2022-12-22T07:49:52.957Z,96175.44
2022-12-22T07:53:55.685Z,96132.50
2022-12-22T08:03:06.077Z,96161.31
2022-12-22T08:07:06.225Z,96157.00
2022-12-22T08:11:09.263Z,96150.34
2022-12-22T08:15:12.220Z,96136.31
2022-12-22T08:19:12.680Z,96153.97
2022-12-22T08:23:13.168Z,96159.28
2022-12-22T08:27:26.114Z,96152.38
2022-12-22T08:31:31.761Z,96151.81
2022-12-22T08:35:32.273Z,96154.44
2022-12-22T08:39:36.981Z,96139.50
2022-12-22T08:43:39.670Z,96150.16
2022-12-22T08:47:39.982Z,96135.16
2022-12-22T08:51:40.196Z,96071.28
2022-12-22T08:55:40.794Z,96128.13
2022-12-22T08:59:43.874Z,96121.41
2022-12-22T09:03:43.895Z,96150.66
2022-12-22T09:07:44.010Z,96138.16
2022-12-22T09:11:44.572Z,96128.13
2022-12-22T09:15:47.542Z,96139.09
2022-12-22T09:19:47.975Z,96139.72
2022-12-22T09:23:48.372Z,96121.94
2022-12-22T09:27:48.434Z,96120.56
2022-12-22T09:31:51.213Z,96127.00
2022-12-22T09:35:51.351Z,96116.41
2022-12-22T09:39:51.708Z,96115.53
2022-12-22T09:43:52.064Z,96105.25
2022-12-22T09:47:57.887Z,96119.16
2022-12-22T09:52:02.759Z,96113.25
2022-12-22T09:56:02.961Z,96110.84
2022-12-22T10:00:13.732Z,96114.31
2022-12-22T10:04:31.766Z,96063.94
2022-12-22T10:08:37.083Z,96098.34
2022-12-22T10:12:37.398Z,96084.81
2022-12-22T10:16:37.535Z,96100.22
2022-12-22T10:20:41.847Z,96075.91
2022-12-22T10:24:47.262Z,96096.31
2022-12-22T10:28:52.492Z,96070.97
2022-12-22T10:33:11.507Z,96088.47
2022-12-22T10:37:14.244Z,96091.75
2022-12-22T10:41:21.247Z,96086.63
2022-12-22T10:45:28.992Z,96079.81
2022-12-22T10:53:50.830Z,96074.59
2022-12-22T10:57:52.221Z,96075.41
2022-12-22T11:01:52.599Z,96062.69
2022-12-22T11:05:52.886Z,96079.59
2022-12-22T11:09:55.526Z,96076.88
2022-12-22T11:14:09.835Z,96071.03
2022-12-22T11:18:30.349Z,96046.63
2022-12-22T11:22:44.206Z,96065.63
2022-12-22T11:26:59.932Z,96044.72
2022-12-22T11:31:20.255Z,96027.47
2022-12-22T11:35:33.059Z,96040.28
2022-12-22T11:39:46.477Z,96031.88
2022-12-22T11:44:08.998Z,96042.75
2022-12-22T11:48:35.411Z,96028.13
2022-12-22T11:52:58.543Z,96028.88
2022-12-22T11:57:07.888Z,96033.75
2022-12-22T12:01:43.011Z,96034.84
2022-12-22T12:06:15.154Z,96011.38
2022-12-22T12:10:26.095Z,96013.53
2022-12-22T12:14:37.597Z,96034.19
2022-12-22T12:19:02.605Z,96006.06
2022-12-22T12:23:23.050Z,96033.63
2022-12-22T12:27:44.370Z,96002.69
2022-12-22T12:31:53.444Z,96007.56
2022-12-22T12:36:06.281Z,96030.75
2022-12-22T12:40:32.450Z,96018.28
2022-12-22T12:44:37.775Z,96040.72
2022-12-22T12:48:43.264Z,96034.63
2022-12-22T12:53:19.564Z,96050.50
2022-12-22T12:57:30.126Z,96047.81
2022-12-22T13:02:02.456Z,96047.88
2022-12-22T13:06:05.363Z,96063.13
2022-12-22T13:10:25.410Z,96052.47
2022-12-22T13:14:58.874Z,96048.19
2022-12-22T13:19:01.173Z,96050.28
2022-12-22T13:23:05.132Z,96054.47
2022-12-22T13:27:13.686Z,96050.28
2022-12-22T13:31:22.341Z,96047.47
2022-12-22T13:35:32.743Z,96038.88
2022-12-22T13:39:33.619Z,96050.94
2022-12-22T13:43:37.405Z,96015.91
2022-12-22T13:47:37.579Z,96062.84
2022-12-22T13:51:40.272Z,96063.56
2022-12-22T13:55:42.596Z,96076.50
2022-12-22T13:59:49.203Z,96039.66
2022-12-22T14:04:01.002Z,96069.47
2022-12-22T14:08:08.420Z,96032.13
2022-12-22T14:12:18.097Z,96059.66
2022-12-22T14:16:20.875Z,96085.53
2022-12-22T14:20:29.051Z,96089.63
2022-12-22T14:24:38.419Z,96103.63
2022-12-22T14:28:50.446Z,96073.22
2022-12-22T14:32:56.284Z,96117.19
2022-12-22T14:36:58.703Z,96128.88
2022-12-22T14:40:58.908Z,96107.19
2022-12-22T14:44:59.760Z,96134.00
2022-12-22T14:49:03.750Z,96138.66
2022-12-22T14:53:06.818Z,96145.88
2022-12-22T14:57:16.108Z,96139.94
2022-12-22T15:01:25.182Z,96143.03
2022-12-22T15:05:33.214Z,96149.56
2022-12-22T15:10:13.172Z,96155.91
2022-12-22T15:13:54.903Z,96154.63
2022-12-22T15:17:56.657Z,96170.66
2022-12-22T15:21:59.599Z,96165.47
2022-12-22T15:25:59.660Z,96178.06
2022-12-22T15:29:59.877Z,96185.69
2022-12-22T15:34:07.190Z,96214.47
2022-12-22T15:38:16.259Z,96200.03
2022-12-22T15:42:16.438Z,96162.88
2022-12-22T15:46:19.689Z,96200.63
2022-12-22T15:50:24.559Z,96219.28
2022-12-22T15:54:33.168Z,96218.31
2022-12-22T15:58:38.552Z,96242.72
2022-12-22T16:02:38.852Z,96234.25
2022-12-22T16:06:39.664Z,96238.78
2022-12-22T16:10:42.488Z,96245.69
2022-12-22T16:14:49.788Z,96255.25
2022-12-22T16:18:51.079Z,96254.19
2022-12-22T16:22:54.270Z,96272.00
2022-12-22T16:27:01.180Z,96273.66
2022-12-22T16:31:02.594Z,96280.75
2022-12-22T16:35:18.177Z,96281.53
2022-12-22T16:39:18.358Z,96295.31
2022-12-22T16:47:40.785Z,96300.75
2022-12-22T16:51:50.991Z,96301.13
2022-12-22T16:55:54.102Z,96281.06
2022-12-22T16:59:56.751Z,96308.31
2022-12-22T17:03:57.740Z,96297.16
2022-12-22T17:08:00.721Z,96300.31
2022-12-22T17:12:04.159Z,96324.09
2022-12-22T17:16:07.821Z,96321.13
2022-12-22T17:20:10.506Z,96327.81
2022-12-22T17:24:20.503Z,96319.06
2022-12-22T17:28:23.171Z,96285.50
2022-12-22T17:32:26.571Z,96323.22
2022-12-22T17:36:36.010Z,96325.66
2022-12-22T17:40:36.159Z,96304.91
2022-12-22T17:44:36.286Z,96322.31
2022-12-22T17:48:40.113Z,96307.22
2022-12-22T17:52:40.521Z,96302.00
2022-12-22T17:56:40.639Z,96321.97
2022-12-22T18:00:40.694Z,96319.28
2022-12-22T18:04:43.426Z,96317.91
2022-12-22T18:08:43.961Z,96314.28
2022-12-22T18:12:44.297Z,96315.41
2022-12-22T18:16:45.237Z,96311.28
2022-12-22T18:21:05.934Z,96308.06
2022-12-22T18:25:20.063Z,96288.31
2022-12-22T18:29:21.698Z,96230.84
2022-12-22T18:33:21.925Z,96286.16
2022-12-22T18:37:25.601Z,96304.91
2022-12-22T18:41:28.737Z,96282.66
2022-12-22T18:45:33.450Z,96285.22
2022-12-22T18:49:33.587Z,96231.97
2022-12-22T18:53:36.611Z,96255.00
2022-12-22T18:57:36.718Z,96197.25
2022-12-22T19:01:38.706Z,96305.06
2022-12-22T19:05:40.718Z,96298.59
2022-12-22T19:09:43.512Z,96258.72
2022-12-22T19:13:49.609Z,96284.78
2022-12-22T19:17:50.773Z,96269.47
2022-12-22T19:21:51.440Z,96304.03
2022-12-22T19:25:58.018Z,96292.75
2022-12-22T19:30:04.373Z,96283.75
2022-12-22T19:34:10.197Z,96281.28
2022-12-22T19:38:24.781Z,96293.47
2022-12-22T19:42:29.574Z,96290.09
2022-12-22T19:46:35.664Z,96232.56
2022-12-22T19:50:36.118Z,96231.47
2022-12-22T19:54:36.189Z,96256.28
2022-12-22T19:58:43.092Z,96289.81
2022-12-22T20:02:43.650Z,96276.53
2022-12-22T20:06:43.795Z,96287.22
2022-12-22T20:10:44.887Z,96193.03
2022-12-22T20:14:48.180Z,96164.50
2022-12-22T20:18:49.069Z,96203.28
2022-12-22T20:22:52.863Z,96227.09
2022-12-22T20:26:54.740Z,96209.31
2022-12-22T20:30:58.586Z,96241.44
2022-12-22T20:34:59.145Z,96239.28
2022-12-22T20:39:02.181Z,96239.38
2022-12-22T20:43:02.405Z,96237.50
2022-12-22T20:47:06.127Z,96207.66
2022-12-22T20:51:10.198Z,96228.44
2022-12-22T20:55:12.466Z,96231.09
2022-12-22T20:59:18.209Z,96226.56
2022-12-22T21:03:21.574Z,96221.22
2022-12-22T21:07:21.835Z,96219.38
2022-12-22T21:11:22.076Z,96211.03
2022-12-22T21:15:25.378Z,96214.50
2022-12-22T21:19:28.126Z,96201.66
2022-12-22T21:23:28.256Z,96195.53
2022-12-22T21:27:31.129Z,96204.34
2022-12-22T21:31:31.818Z,96190.00
2022-12-22T21:35:39.418Z,96189.75
2022-12-22T21:39:44.739Z,96187.94
2022-12-22T21:43:45.198Z,96132.91
2022-12-22T21:47:46.085Z,96182.34
2022-12-22T21:51:49.178Z,96171.97
2022-12-22T21:55:49.507Z,96141.41
2022-12-22T21:59:49.684Z,96157.56
2022-12-22T22:03:50.167Z,96141.19
2022-12-22T22:07:53.381Z,96162.38
2022-12-22T22:12:06.072Z,96155.50
2022-12-22T22:16:06.280Z,96155.19
2022-12-22T22:20:08.077Z,96140.03
2022-12-22T22:24:11.353Z,96100.19
2022-12-22T22:28:13.384Z,96139.00
2022-12-22T22:32:13.491Z,96089.78
2022-12-22T22:36:14.008Z,96128.06
2022-12-22T22:40:18.081Z,96125.13
2022-12-22T22:44:18.376Z,96097.00
2022-12-22T22:48:23.266Z,96115.34
2022-12-22T22:52:23.346Z,96097.78
2022-12-22T22:56:26.062Z,96097.53
2022-12-22T23:00:26.450Z,96096.50
2022-12-22T23:04:26.730Z,96072.84
2022-12-22T23:08:26.890Z,96081.06
2022-12-22T23:12:30.107Z,96087.44
2022-12-22T23:16:37.427Z,96083.72
2022-12-22T23:20:38.371Z,96079.97
2022-12-22T23:24:38.924Z,96079.72
2022-12-22T23:28:42.260Z,96034.41
2022-12-22T23:32:42.373Z,96062.34
2022-12-22T23:36:42.723Z,96021.91
2022-12-22T23:40:53.449Z,96051.63
2022-12-22T23:44:57.051Z,96054.28
2022-12-22T23:48:59.557Z,96012.00
2022-12-22T23:52:59.703Z,96027.72
2022-12-22T23:56:59.848Z,96021.88
